AUA21C LOWW-EDDF
Flight info
| Callsign | AUA21C |
|---|---|
| Flight time | 1h 30m |
| Altitude | 30000 |
| Route | LUGEM DCT SUBEN T161 DEBHI DEBHI1D |
| Aircraft | A320/M-SDE2E3FGIJ1RWXY/LB1 |
Departure
| Time | 2026-05-01 11:52 |
|---|---|
| Airport | Vienna International Airport (LOWW) |
Arrival
| Time | 2026-05-01 13:23 |
|---|---|
| Airport | Frankfurt Main Airport (EDDF) |
| Time | Latitude | Longitude | Altitude | Speed | Heading |
|---|---|---|---|---|---|
| 2026-05-01 11:16 | 48.11878 | 16.56821 | 609 ft | 0 kts | 206° |
| 2026-05-01 11:21 | 48.11879 | 16.56821 | 609 ft | 0 kts | 206° |
| 2026-05-01 11:37 | 48.11879 | 16.56822 | 610 ft | 0 kts | 206° |
| 2026-05-01 11:40 | 48.11881 | 16.56823 | 610 ft | 2 kts | 206° |
| 2026-05-01 11:40 | 48.11904 | 16.56839 | 622 ft | 4 kts | 203° |
| 2026-05-01 11:40 | 48.11929 | 16.56852 | 622 ft | 4 kts | 186° |
| 2026-05-01 11:41 | 48.11951 | 16.56848 | 615 ft | 3 kts | 120° |
| 2026-05-01 11:41 | 48.11952 | 16.56844 | 613 ft | 3 kts | 116° |
| 2026-05-01 11:45 | 48.11947 | 16.56859 | 623 ft | 5 kts | 116° |
| 2026-05-01 11:46 | 48.11929 | 16.56914 | 615 ft | 6 kts | 116° |
| 2026-05-01 11:46 | 48.11914 | 16.56961 | 620 ft | 4 kts | 117° |
| 2026-05-01 11:46 | 48.11895 | 16.57018 | 615 ft | 8 kts | 116° |
| 2026-05-01 11:46 | 48.11868 | 16.57102 | 619 ft | 10 kts | 116° |
| 2026-05-01 11:47 | 48.11857 | 16.57198 | 610 ft | 9 kts | 86° |
| 2026-05-01 11:47 | 48.11837 | 16.57274 | 615 ft | 7 kts | 123° |
| 2026-05-01 11:47 | 48.11811 | 16.57334 | 622 ft | 6 kts | 123° |
| 2026-05-01 11:47 | 48.11783 | 16.57355 | 615 ft | 5 kts | 164° |
| 2026-05-01 11:48 | 48.11719 | 16.57383 | 623 ft | 14 kts | 164° |
| 2026-05-01 11:48 | 48.11623 | 16.57423 | 616 ft | 14 kts | 164° |
| 2026-05-01 11:48 | 48.11535 | 16.57459 | 617 ft | 12 kts | 169° |
| 2026-05-01 11:48 | 48.11457 | 16.57434 | 613 ft | 11 kts | 205° |
| 2026-05-01 11:49 | 48.11394 | 16.57388 | 616 ft | 10 kts | 205° |
| 2026-05-01 11:49 | 48.11319 | 16.57335 | 614 ft | 12 kts | 205° |
| 2026-05-01 11:49 | 48.11248 | 16.57287 | 610 ft | 10 kts | 200° |
| 2026-05-01 11:49 | 48.11194 | 16.57324 | 617 ft | 8 kts | 127° |
| 2026-05-01 11:50 | 48.11169 | 16.57396 | 612 ft | 7 kts | 116° |
| 2026-05-01 11:50 | 48.11149 | 16.57459 | 616 ft | 6 kts | 115° |
| 2026-05-01 11:50 | 48.11131 | 16.57510 | 624 ft | 5 kts | 131° |
| 2026-05-01 11:50 | 48.11105 | 16.57526 | 615 ft | 4 kts | 171° |
| 2026-05-01 11:51 | 48.11047 | 16.57506 | 614 ft | 13 kts | 205° |
| 2026-05-01 11:51 | 48.10962 | 16.57441 | 619 ft | 9 kts | 214° |
| 2026-05-01 11:51 | 48.10965 | 16.57379 | 617 ft | 7 kts | 298° |
| 2026-05-01 11:51 | 48.11009 | 16.57246 | 614 ft | 32 kts | 297° |
| 2026-05-01 11:52 | 48.11219 | 16.56608 | 614 ft | 101 kts | 295° |
| 2026-05-01 11:52 | 48.11611 | 16.55406 | 621 ft | 154 kts | 297° |
| 2026-05-01 11:52 | 48.12081 | 16.53893 | 1136 ft | 162 kts | 287° |
| 2026-05-01 11:52 | 48.12010 | 16.52196 | 1891 ft | 169 kts | 255° |
| 2026-05-01 11:53 | 48.11707 | 16.50388 | 2376 ft | 182 kts | 263° |
| 2026-05-01 11:53 | 48.11528 | 16.48525 | 3117 ft | 179 kts | 266° |
| 2026-05-01 11:53 | 48.11335 | 16.46668 | 3865 ft | 182 kts | 261° |
| 2026-05-01 11:53 | 48.11040 | 16.44707 | 4220 ft | 204 kts | 260° |
| 2026-05-01 11:54 | 48.10703 | 16.42510 | 4516 ft | 230 kts | 259° |
| 2026-05-01 11:54 | 48.10320 | 16.40077 | 4866 ft | 256 kts | 258° |
| 2026-05-01 11:54 | 48.09896 | 16.37400 | 5489 ft | 270 kts | 263° |
| 2026-05-01 11:54 | 48.09865 | 16.34565 | 6271 ft | 277 kts | 273° |
| 2026-05-01 11:55 | 48.09954 | 16.31633 | 7096 ft | 283 kts | 274° |
| 2026-05-01 11:55 | 48.10012 | 16.28644 | 7956 ft | 289 kts | 274° |
| 2026-05-01 11:55 | 48.10069 | 16.25618 | 8834 ft | 293 kts | 275° |
| 2026-05-01 11:55 | 48.10116 | 16.22537 | 9676 ft | 300 kts | 273° |
| 2026-05-01 11:56 | 48.10218 | 16.19447 | 10484 ft | 303 kts | 279° |
| 2026-05-01 11:56 | 48.10467 | 16.16213 | 10859 ft | 324 kts | 281° |
| 2026-05-01 11:56 | 48.10780 | 16.12717 | 11282 ft | 341 kts | 281° |
| 2026-05-01 11:56 | 48.11106 | 16.09218 | 11943 ft | 348 kts | 282° |
| 2026-05-01 11:57 | 48.11446 | 16.05557 | 12715 ft | 352 kts | 282° |
| 2026-05-01 11:57 | 48.11783 | 16.01899 | 13487 ft | 356 kts | 282° |
| 2026-05-01 11:57 | 48.12120 | 15.98207 | 14224 ft | 360 kts | 282° |
| 2026-05-01 11:57 | 48.12456 | 15.94468 | 14877 ft | 364 kts | 282° |
| 2026-05-01 11:58 | 48.12794 | 15.90684 | 15505 ft | 369 kts | 282° |
| 2026-05-01 11:58 | 48.13133 | 15.86854 | 16156 ft | 373 kts | 282° |
| 2026-05-01 11:58 | 48.13813 | 15.79068 | 17437 ft | 382 kts | 282° |
| 2026-05-01 11:59 | 48.14151 | 15.75144 | 18063 ft | 386 kts | 282° |
| 2026-05-01 11:59 | 48.14502 | 15.71102 | 18692 ft | 390 kts | 282° |
| 2026-05-01 11:59 | 48.14854 | 15.67049 | 19231 ft | 394 kts | 282° |
| 2026-05-01 12:00 | 48.15562 | 15.58837 | 20341 ft | 401 kts | 282° |
| 2026-05-01 12:00 | 48.15920 | 15.54678 | 20894 ft | 404 kts | 282° |
| 2026-05-01 12:00 | 48.16649 | 15.46191 | 21999 ft | 412 kts | 282° |
| 2026-05-01 12:01 | 48.17010 | 15.41916 | 22543 ft | 415 kts | 282° |
| 2026-05-01 12:01 | 48.17386 | 15.37650 | 23084 ft | 418 kts | 283° |
| 2026-05-01 12:01 | 48.17879 | 15.33353 | 23626 ft | 420 kts | 286° |
| 2026-05-01 12:01 | 48.18467 | 15.29064 | 24109 ft | 422 kts | 287° |
| 2026-05-01 12:02 | 48.19717 | 15.20705 | 24960 ft | 427 kts | 288° |
| 2026-05-01 12:02 | 48.20356 | 15.16346 | 25401 ft | 429 kts | 287° |
| 2026-05-01 12:02 | 48.20976 | 15.11955 | 25829 ft | 432 kts | 287° |
| 2026-05-01 12:03 | 48.21580 | 15.07544 | 26247 ft | 434 kts | 287° |
| 2026-05-01 12:03 | 48.22176 | 15.03106 | 26641 ft | 436 kts | 286° |
| 2026-05-01 12:03 | 48.22781 | 14.98564 | 27046 ft | 438 kts | 287° |
| 2026-05-01 12:03 | 48.23379 | 14.94074 | 27426 ft | 440 kts | 287° |
| 2026-05-01 12:04 | 48.23964 | 14.89652 | 27730 ft | 441 kts | 286° |
| 2026-05-01 12:04 | 48.24571 | 14.85038 | 28095 ft | 443 kts | 286° |
| 2026-05-01 12:04 | 48.25168 | 14.80527 | 28478 ft | 445 kts | 287° |
| 2026-05-01 12:04 | 48.25782 | 14.75920 | 28873 ft | 447 kts | 286° |
| 2026-05-01 12:05 | 48.26398 | 14.71284 | 29244 ft | 449 kts | 286° |
| 2026-05-01 12:05 | 48.27615 | 14.62045 | 29919 ft | 453 kts | 286° |
| 2026-05-01 12:05 | 48.28223 | 14.57394 | 30267 ft | 454 kts | 286° |
| 2026-05-01 12:06 | 48.28829 | 14.52740 | 30394 ft | 451 kts | 286° |
| 2026-05-01 12:06 | 48.29411 | 14.48205 | 30406 ft | 434 kts | 286° |
| 2026-05-01 12:06 | 48.30534 | 14.39407 | 30411 ft | 425 kts | 286° |
| 2026-05-01 12:07 | 48.31656 | 14.30690 | 30410 ft | 424 kts | 286° |
| 2026-05-01 12:07 | 48.32772 | 14.21993 | 30409 ft | 424 kts | 286° |
| 2026-05-01 12:08 | 48.33881 | 14.13291 | 30409 ft | 424 kts | 286° |
| 2026-05-01 12:08 | 48.34976 | 14.04580 | 30401 ft | 423 kts | 285° |
| 2026-05-01 12:09 | 48.36065 | 13.95883 | 30394 ft | 423 kts | 285° |
| 2026-05-01 12:09 | 48.37142 | 13.87186 | 30401 ft | 423 kts | 285° |
| 2026-05-01 12:10 | 48.38754 | 13.74143 | 30395 ft | 422 kts | 285° |
| 2026-05-01 12:11 | 48.40177 | 13.62520 | 30393 ft | 422 kts | 285° |
| 2026-05-01 12:11 | 48.41235 | 13.53720 | 30394 ft | 421 kts | 285° |
| 2026-05-01 12:12 | 48.42271 | 13.45092 | 30386 ft | 421 kts | 284° |
| 2026-05-01 12:12 | 48.43312 | 13.36418 | 30387 ft | 421 kts | 285° |
| 2026-05-01 12:13 | 48.45094 | 13.28152 | 30384 ft | 413 kts | 296° |
| 2026-05-01 12:13 | 48.47223 | 13.20107 | 30381 ft | 413 kts | 296° |
| 2026-05-01 12:14 | 48.49349 | 13.12061 | 30378 ft | 413 kts | 296° |
| 2026-05-01 12:14 | 48.51464 | 13.04000 | 30375 ft | 413 kts | 296° |
| 2026-05-01 12:15 | 48.53563 | 12.95944 | 30372 ft | 413 kts | 296° |
| 2026-05-01 12:15 | 48.55667 | 12.87882 | 30369 ft | 412 kts | 296° |
| 2026-05-01 12:16 | 48.57765 | 12.79821 | 30365 ft | 412 kts | 295° |
| 2026-05-01 12:16 | 48.59865 | 12.71706 | 30372 ft | 412 kts | 295° |
| 2026-05-01 12:17 | 48.61945 | 12.63627 | 30368 ft | 412 kts | 295° |
| 2026-05-01 12:17 | 48.64018 | 12.55564 | 30374 ft | 412 kts | 295° |
| 2026-05-01 12:18 | 48.66091 | 12.47471 | 30366 ft | 412 kts | 295° |
| 2026-05-01 12:18 | 48.68161 | 12.39328 | 30370 ft | 412 kts | 295° |
| 2026-05-01 12:19 | 48.70221 | 12.31225 | 30366 ft | 412 kts | 295° |
| 2026-05-01 12:19 | 48.72273 | 12.23127 | 30370 ft | 412 kts | 294° |
| 2026-05-01 12:20 | 48.74086 | 12.15937 | 30368 ft | 412 kts | 294° |
| 2026-05-01 12:21 | 48.75042 | 12.11841 | 30194 ft | 411 kts | 286° |
| 2026-05-01 12:21 | 48.75537 | 12.07479 | 30373 ft | 416 kts | 282° |
| 2026-05-01 12:21 | 48.75978 | 12.03120 | 30378 ft | 418 kts | 282° |
| 2026-05-01 12:22 | 48.76910 | 11.94426 | 30388 ft | 418 kts | 282° |
| 2026-05-01 12:22 | 48.77861 | 11.85723 | 30379 ft | 417 kts | 282° |
| 2026-05-01 12:23 | 48.78804 | 11.76990 | 30380 ft | 417 kts | 282° |
| 2026-05-01 12:23 | 48.79605 | 11.69306 | 30380 ft | 417 kts | 282° |
| 2026-05-01 12:24 | 48.80451 | 11.61166 | 30379 ft | 417 kts | 282° |
| 2026-05-01 12:24 | 48.81344 | 11.52598 | 30376 ft | 416 kts | 282° |
| 2026-05-01 12:25 | 48.82667 | 11.39760 | 30372 ft | 416 kts | 281° |
| 2026-05-01 12:26 | 48.83549 | 11.31032 | 30369 ft | 416 kts | 281° |
| 2026-05-01 12:26 | 48.85247 | 11.22830 | 30367 ft | 409 kts | 301° |
| 2026-05-01 12:26 | 48.86772 | 11.19219 | 30362 ft | 405 kts | 311° |
| 2026-05-01 12:27 | 48.92785 | 11.10387 | 30358 ft | 401 kts | 320° |
| 2026-05-01 12:28 | 48.98968 | 11.01745 | 30363 ft | 402 kts | 320° |
| 2026-05-01 12:29 | 49.05144 | 10.93060 | 30371 ft | 402 kts | 320° |
| 2026-05-01 12:29 | 49.11287 | 10.84390 | 30355 ft | 399 kts | 319° |
| 2026-05-01 12:30 | 49.15333 | 10.78652 | 29346 ft | 392 kts | 320° |
| 2026-05-01 12:30 | 49.17323 | 10.75833 | 28895 ft | 388 kts | 319° |
| 2026-05-01 12:30 | 49.19282 | 10.73058 | 28451 ft | 384 kts | 319° |
| 2026-05-01 12:31 | 49.21265 | 10.70158 | 27999 ft | 381 kts | 317° |
| 2026-05-01 12:31 | 49.23049 | 10.67402 | 27590 ft | 379 kts | 316° |
| 2026-05-01 12:31 | 49.24873 | 10.64498 | 27161 ft | 376 kts | 316° |
| 2026-05-01 12:31 | 49.26666 | 10.61611 | 26737 ft | 373 kts | 316° |
| 2026-05-01 12:32 | 49.28450 | 10.58737 | 26319 ft | 370 kts | 316° |
| 2026-05-01 12:32 | 49.32001 | 10.53061 | 25432 ft | 367 kts | 316° |
| 2026-05-01 12:32 | 49.33769 | 10.50255 | 24981 ft | 366 kts | 316° |
| 2026-05-01 12:33 | 49.35536 | 10.47456 | 24537 ft | 365 kts | 315° |
| 2026-05-01 12:33 | 49.37097 | 10.44381 | 24370 ft | 367 kts | 307° |
| 2026-05-01 12:33 | 49.38565 | 10.41164 | 24293 ft | 368 kts | 307° |
| 2026-05-01 12:33 | 49.40041 | 10.37943 | 24218 ft | 368 kts | 307° |
| 2026-05-01 12:34 | 49.41515 | 10.34720 | 23994 ft | 368 kts | 307° |
| 2026-05-01 12:34 | 49.42542 | 10.32472 | 23815 ft | 367 kts | 307° |
| 2026-05-01 12:34 | 49.44448 | 10.28294 | 23453 ft | 366 kts | 307° |
| 2026-05-01 12:34 | 49.45906 | 10.25093 | 23178 ft | 365 kts | 307° |
| 2026-05-01 12:35 | 49.47360 | 10.21902 | 22911 ft | 364 kts | 307° |
| 2026-05-01 12:35 | 49.48807 | 10.18724 | 22636 ft | 363 kts | 307° |
| 2026-05-01 12:35 | 49.49785 | 10.16569 | 22455 ft | 362 kts | 307° |
| 2026-05-01 12:35 | 49.51227 | 10.13381 | 22171 ft | 362 kts | 307° |
| 2026-05-01 12:36 | 49.52661 | 10.10200 | 21912 ft | 361 kts | 306° |
| 2026-05-01 12:36 | 49.54084 | 10.07042 | 21659 ft | 360 kts | 306° |
| 2026-05-01 12:36 | 49.55513 | 10.03869 | 21394 ft | 359 kts | 307° |
| 2026-05-01 12:36 | 49.56935 | 10.00710 | 21135 ft | 358 kts | 307° |
| 2026-05-01 12:37 | 49.58351 | 9.97561 | 20883 ft | 357 kts | 306° |
| 2026-05-01 12:37 | 49.59764 | 9.94423 | 20631 ft | 356 kts | 306° |
| 2026-05-01 12:37 | 49.61177 | 9.91279 | 20380 ft | 355 kts | 306° |
| 2026-05-01 12:37 | 49.62580 | 9.88152 | 20131 ft | 354 kts | 306° |
| 2026-05-01 12:38 | 49.63980 | 9.85029 | 19889 ft | 354 kts | 306° |
| 2026-05-01 12:38 | 49.65377 | 9.81903 | 19642 ft | 353 kts | 306° |
| 2026-05-01 12:38 | 49.66768 | 9.78787 | 19404 ft | 352 kts | 306° |
| 2026-05-01 12:38 | 49.68157 | 9.75677 | 19164 ft | 352 kts | 306° |
| 2026-05-01 12:39 | 49.69541 | 9.72577 | 18928 ft | 351 kts | 306° |
| 2026-05-01 12:39 | 49.70949 | 9.69425 | 18686 ft | 350 kts | 306° |
| 2026-05-01 12:39 | 49.72327 | 9.66331 | 18420 ft | 349 kts | 306° |
| 2026-05-01 12:39 | 49.73804 | 9.63008 | 18135 ft | 348 kts | 306° |
| 2026-05-01 12:40 | 49.75065 | 9.60163 | 17887 ft | 347 kts | 306° |
| 2026-05-01 12:40 | 49.76340 | 9.57278 | 17513 ft | 347 kts | 305° |
| 2026-05-01 12:40 | 49.77700 | 9.54193 | 17086 ft | 346 kts | 305° |
| 2026-05-01 12:40 | 49.79055 | 9.51124 | 16656 ft | 346 kts | 305° |
| 2026-05-01 12:41 | 49.80419 | 9.48034 | 16220 ft | 347 kts | 306° |
| 2026-05-01 12:41 | 49.81786 | 9.44933 | 15787 ft | 347 kts | 305° |
| 2026-05-01 12:41 | 49.83138 | 9.41859 | 15346 ft | 347 kts | 306° |
| 2026-05-01 12:41 | 49.84506 | 9.38740 | 14896 ft | 348 kts | 305° |
| 2026-05-01 12:42 | 49.85819 | 9.35615 | 14472 ft | 348 kts | 299° |
| 2026-05-01 12:42 | 49.86741 | 9.32145 | 14076 ft | 348 kts | 286° |
| 2026-05-01 12:42 | 49.87419 | 9.28558 | 13714 ft | 344 kts | 287° |
| 2026-05-01 12:42 | 49.88096 | 9.25018 | 13373 ft | 340 kts | 287° |
| 2026-05-01 12:43 | 49.88770 | 9.21513 | 13033 ft | 337 kts | 286° |
| 2026-05-01 12:43 | 49.89436 | 9.18050 | 12701 ft | 333 kts | 287° |
| 2026-05-01 12:43 | 49.90096 | 9.14607 | 12364 ft | 331 kts | 286° |
| 2026-05-01 12:43 | 49.90741 | 9.11230 | 12036 ft | 328 kts | 286° |
| 2026-05-01 12:44 | 49.91389 | 9.07828 | 11703 ft | 326 kts | 285° |
| 2026-05-01 12:44 | 49.92010 | 9.04556 | 11396 ft | 322 kts | 285° |
| 2026-05-01 12:44 | 49.93285 | 8.97843 | 11089 ft | 316 kts | 285° |
| 2026-05-01 12:45 | 49.94504 | 8.91456 | 10819 ft | 314 kts | 285° |
| 2026-05-01 12:45 | 49.95122 | 8.88213 | 10686 ft | 312 kts | 285° |
| 2026-05-01 12:45 | 49.95736 | 8.84976 | 10549 ft | 312 kts | 285° |
| 2026-05-01 12:46 | 49.96345 | 8.81757 | 10411 ft | 310 kts | 285° |
| 2026-05-01 12:46 | 49.96948 | 8.78572 | 10255 ft | 304 kts | 285° |
| 2026-05-01 12:46 | 49.97536 | 8.75420 | 10148 ft | 303 kts | 282° |
| 2026-05-01 12:46 | 49.97801 | 8.72161 | 10005 ft | 299 kts | 267° |
| 2026-05-01 12:47 | 49.97555 | 8.69043 | 9884 ft | 295 kts | 253° |
| 2026-05-01 12:47 | 49.96875 | 8.66000 | 9751 ft | 293 kts | 246° |
| 2026-05-01 12:47 | 49.96159 | 8.63042 | 9626 ft | 293 kts | 246° |
| 2026-05-01 12:47 | 49.95458 | 8.60113 | 9492 ft | 291 kts | 247° |
| 2026-05-01 12:48 | 49.94752 | 8.57170 | 9374 ft | 291 kts | 247° |
| 2026-05-01 12:48 | 49.94033 | 8.54190 | 9241 ft | 290 kts | 246° |
| 2026-05-01 12:48 | 49.93337 | 8.51306 | 9114 ft | 289 kts | 246° |
| 2026-05-01 12:48 | 49.92630 | 8.48385 | 8983 ft | 289 kts | 246° |
| 2026-05-01 12:49 | 49.91927 | 8.45475 | 8858 ft | 288 kts | 246° |
| 2026-05-01 12:49 | 49.91225 | 8.42567 | 8735 ft | 287 kts | 246° |
| 2026-05-01 12:49 | 49.90524 | 8.39670 | 8598 ft | 286 kts | 246° |
| 2026-05-01 12:49 | 49.89825 | 8.36779 | 8479 ft | 286 kts | 246° |
| 2026-05-01 12:50 | 49.89129 | 8.33895 | 8358 ft | 284 kts | 246° |
| 2026-05-01 12:50 | 49.88433 | 8.31021 | 8232 ft | 285 kts | 246° |
| 2026-05-01 12:50 | 49.87738 | 8.28157 | 8102 ft | 283 kts | 247° |
| 2026-05-01 12:50 | 49.87041 | 8.25295 | 7988 ft | 283 kts | 246° |
| 2026-05-01 12:51 | 49.86343 | 8.22424 | 7843 ft | 282 kts | 246° |
| 2026-05-01 12:51 | 49.85641 | 8.19540 | 7723 ft | 281 kts | 246° |
| 2026-05-01 12:51 | 49.84265 | 8.13925 | 7473 ft | 280 kts | 246° |
| 2026-05-01 12:52 | 49.83575 | 8.11106 | 7350 ft | 280 kts | 246° |
| 2026-05-01 12:52 | 49.83123 | 8.05189 | 6822 ft | 285 kts | 284° |
| 2026-05-01 12:52 | 49.84045 | 8.02457 | 6509 ft | 290 kts | 309° |
| 2026-05-01 12:53 | 49.87712 | 7.99853 | 4739 ft | 307 kts | 7° |
| 2026-05-01 12:53 | 49.89710 | 8.00708 | 4191 ft | 290 kts | 32° |
| 2026-05-01 12:53 | 49.91203 | 8.02575 | 4013 ft | 264 kts | 55° |
| 2026-05-01 12:54 | 49.92039 | 8.04892 | 3971 ft | 255 kts | 75° |
| 2026-05-01 12:54 | 49.92947 | 8.10212 | 3969 ft | 255 kts | 78° |
| 2026-05-01 12:54 | 49.93379 | 8.12831 | 3974 ft | 245 kts | 79° |
| 2026-05-01 12:55 | 49.94198 | 8.17728 | 3980 ft | 226 kts | 78° |
| 2026-05-01 12:55 | 49.94713 | 8.20049 | 4000 ft | 225 kts | 73° |
| 2026-05-01 12:55 | 49.95250 | 8.22288 | 3982 ft | 215 kts | 73° |
| 2026-05-01 12:56 | 49.95762 | 8.24388 | 4000 ft | 202 kts | 73° |
| 2026-05-01 12:56 | 49.96249 | 8.26377 | 3992 ft | 193 kts | 72° |
| 2026-05-01 12:56 | 49.96729 | 8.28346 | 3999 ft | 184 kts | 73° |
| 2026-05-01 12:56 | 49.97161 | 8.30133 | 4043 ft | 183 kts | 72° |
| 2026-05-01 12:57 | 49.97602 | 8.31979 | 3788 ft | 181 kts | 73° |
| 2026-05-01 12:57 | 49.98492 | 8.35713 | 2810 ft | 181 kts | 72° |
| 2026-05-01 12:57 | 49.98917 | 8.37472 | 2544 ft | 168 kts | 72° |
| 2026-05-01 12:58 | 49.99320 | 8.39143 | 2320 ft | 165 kts | 73° |
| 2026-05-01 12:58 | 49.99714 | 8.40775 | 2084 ft | 154 kts | 72° |
| 2026-05-01 12:58 | 50.00070 | 8.42246 | 1905 ft | 141 kts | 72° |
| 2026-05-01 12:59 | 50.00729 | 8.44990 | 1514 ft | 134 kts | 74° |
| 2026-05-01 12:59 | 50.01062 | 8.46372 | 1336 ft | 133 kts | 73° |
| 2026-05-01 12:59 | 50.01709 | 8.49065 | 930 ft | 131 kts | 70° |
| 2026-05-01 13:00 | 50.02249 | 8.51306 | 655 ft | 132 kts | 70° |
| 2026-05-01 13:00 | 50.02569 | 8.52655 | 472 ft | 132 kts | 70° |
| 2026-05-01 13:01 | 50.03168 | 8.55159 | 353 ft | 101 kts | 72° |
| 2026-05-01 13:01 | 50.03421 | 8.56248 | 518 ft | 120 kts | 71° |
| 2026-05-01 13:01 | 50.04014 | 8.58651 | 2121 ft | 102 kts | 71° |
| 2026-05-01 13:02 | 50.04333 | 8.59964 | 2505 ft | 138 kts | 72° |
| 2026-05-01 13:07 | 49.94951 | 8.82364 | 4986 ft | 266 kts | 225° |
| 2026-05-01 13:07 | 49.93734 | 8.80194 | 4985 ft | 266 kts | 225° |
| 2026-05-01 13:07 | 49.92520 | 8.78034 | 4984 ft | 266 kts | 225° |
| 2026-05-01 13:08 | 49.91305 | 8.75874 | 4980 ft | 265 kts | 226° |
| 2026-05-01 13:08 | 49.90092 | 8.73716 | 4983 ft | 266 kts | 226° |
| 2026-05-01 13:08 | 49.88879 | 8.71560 | 4985 ft | 264 kts | 225° |
| 2026-05-01 13:08 | 49.87663 | 8.69406 | 4988 ft | 267 kts | 226° |
| 2026-05-01 13:09 | 49.86453 | 8.67258 | 4980 ft | 264 kts | 226° |
| 2026-05-01 13:09 | 49.85241 | 8.65103 | 4983 ft | 265 kts | 225° |
| 2026-05-01 13:09 | 49.84027 | 8.62953 | 4967 ft | 263 kts | 226° |
| 2026-05-01 13:09 | 49.82817 | 8.60811 | 4975 ft | 264 kts | 225° |
| 2026-05-01 13:10 | 49.81623 | 8.58698 | 4982 ft | 264 kts | 226° |
| 2026-05-01 13:10 | 49.80408 | 8.56525 | 4981 ft | 266 kts | 228° |
| 2026-05-01 13:10 | 49.79505 | 8.54058 | 4972 ft | 269 kts | 246° |
| 2026-05-01 13:10 | 49.79101 | 8.51205 | 4973 ft | 274 kts | 264° |
| 2026-05-01 13:11 | 49.79091 | 8.48228 | 4976 ft | 276 kts | 268° |
| 2026-05-01 13:11 | 49.79094 | 8.45270 | 4969 ft | 274 kts | 266° |
| 2026-05-01 13:11 | 49.79097 | 8.42304 | 4973 ft | 259 kts | 266° |
| 2026-05-01 13:11 | 49.79096 | 8.39643 | 4975 ft | 257 kts | 265° |
| 2026-05-01 13:12 | 49.79091 | 8.36880 | 4972 ft | 256 kts | 266° |
| 2026-05-01 13:12 | 49.79084 | 8.34139 | 4969 ft | 254 kts | 266° |
| 2026-05-01 13:12 | 49.79075 | 8.31397 | 4964 ft | 255 kts | 267° |
| 2026-05-01 13:12 | 49.79065 | 8.28667 | 4970 ft | 256 kts | 266° |
| 2026-05-01 13:13 | 49.79058 | 8.25889 | 4959 ft | 255 kts | 266° |
| 2026-05-01 13:13 | 49.79051 | 8.23125 | 4600 ft | 253 kts | 266° |
| 2026-05-01 13:13 | 49.79041 | 8.20421 | 4271 ft | 253 kts | 266° |
| 2026-05-01 13:13 | 49.79235 | 8.17723 | 4139 ft | 249 kts | 285° |
| 2026-05-01 13:14 | 49.79961 | 8.15384 | 4023 ft | 245 kts | 306° |
| 2026-05-01 13:14 | 49.81146 | 8.13519 | 3967 ft | 235 kts | 325° |
| 2026-05-01 13:14 | 49.82564 | 8.12384 | 3975 ft | 228 kts | 341° |
| 2026-05-01 13:14 | 49.84044 | 8.11518 | 3959 ft | 227 kts | 341° |
| 2026-05-01 13:15 | 49.85554 | 8.10699 | 3972 ft | 226 kts | 350° |
| 2026-05-01 13:15 | 49.87073 | 8.10563 | 3970 ft | 217 kts | 9° |
| 2026-05-01 13:15 | 49.88497 | 8.11166 | 3967 ft | 206 kts | 30° |
| 2026-05-01 13:15 | 49.89692 | 8.12376 | 3976 ft | 203 kts | 45° |
| 2026-05-01 13:16 | 49.90766 | 8.13739 | 3964 ft | 201 kts | 44° |
| 2026-05-01 13:16 | 49.91870 | 8.15141 | 3972 ft | 203 kts | 44° |
| 2026-05-01 13:16 | 49.92966 | 8.16532 | 3983 ft | 202 kts | 43° |
| 2026-05-01 13:17 | 49.94900 | 8.21351 | 4013 ft | 164 kts | 76° |
| 2026-05-01 13:17 | 49.95334 | 8.22976 | 3936 ft | 161 kts | 71° |
| 2026-05-01 13:18 | 49.96209 | 8.26335 | 3904 ft | 169 kts | 72° |
| 2026-05-01 13:18 | 49.96619 | 8.27990 | 3731 ft | 155 kts | 73° |
| 2026-05-01 13:18 | 49.96981 | 8.29471 | 3562 ft | 142 kts | 74° |
| 2026-05-01 13:18 | 49.97330 | 8.30914 | 3390 ft | 144 kts | 73° |
| 2026-05-01 13:19 | 49.97683 | 8.32372 | 3167 ft | 138 kts | 73° |
| 2026-05-01 13:19 | 49.98025 | 8.33783 | 3004 ft | 142 kts | 72° |
| 2026-05-01 13:19 | 49.98704 | 8.36590 | 2612 ft | 136 kts | 74° |
| 2026-05-01 13:20 | 49.99036 | 8.37968 | 2445 ft | 135 kts | 74° |
| 2026-05-01 13:20 | 49.99368 | 8.39344 | 2269 ft | 139 kts | 73° |
| 2026-05-01 13:20 | 49.99707 | 8.40751 | 2060 ft | 133 kts | 73° |
| 2026-05-01 13:21 | 50.00355 | 8.43436 | 1716 ft | 129 kts | 73° |
| 2026-05-01 13:21 | 50.00672 | 8.44754 | 1539 ft | 130 kts | 73° |
| 2026-05-01 13:21 | 50.00995 | 8.46082 | 1355 ft | 132 kts | 71° |
| 2026-05-01 13:21 | 50.01313 | 8.47427 | 1153 ft | 130 kts | 68° |
| 2026-05-01 13:22 | 50.01627 | 8.48724 | 955 ft | 128 kts | 70° |
| 2026-05-01 13:22 | 50.01933 | 8.50007 | 806 ft | 127 kts | 70° |
| 2026-05-01 13:22 | 50.02247 | 8.51315 | 661 ft | 125 kts | 70° |
| 2026-05-01 13:22 | 50.02540 | 8.52542 | 488 ft | 124 kts | 70° |
| 2026-05-01 13:23 | 50.02847 | 8.53795 | 368 ft | 122 kts | 72° |
| 2026-05-01 13:23 | 50.03114 | 8.54918 | 344 ft | 94 kts | 70° |
| 2026-05-01 13:23 | 50.03278 | 8.55613 | 350 ft | 45 kts | 70° |
| 2026-05-01 13:23 | 50.03327 | 8.55820 | 349 ft | 0 kts | 69° |
| 2026-05-01 13:24 | 50.03345 | 8.55892 | 347 ft | 20 kts | 69° |
| 2026-05-01 13:24 | 50.03403 | 8.56118 | 351 ft | 22 kts | 63° |
| 2026-05-01 13:24 | 50.03490 | 8.56305 | 359 ft | 21 kts | 47° |
| 2026-05-01 13:25 | 50.03612 | 8.56470 | 351 ft | 0 kts | 39° |
| 2026-05-01 13:25 | 50.03629 | 8.56492 | 351 ft | 12 kts | 39° |
| 2026-05-01 13:25 | 50.03717 | 8.56599 | 351 ft | 17 kts | 37° |
| 2026-05-01 13:25 | 50.03815 | 8.56657 | 356 ft | 4 kts | 12° |
| 2026-05-01 13:26 | 50.03822 | 8.56659 | 355 ft | 6 kts | 12° |
| 2026-05-01 13:26 | 50.03900 | 8.56685 | 358 ft | 13 kts | 12° |
| 2026-05-01 13:26 | 50.03990 | 8.56712 | 358 ft | 14 kts | 11° |
| 2026-05-01 13:26 | 50.04082 | 8.56720 | 364 ft | 13 kts | 356° |
| 2026-05-01 13:27 | 50.04158 | 8.56763 | 363 ft | 7 kts | 24° |
| 2026-05-01 13:27 | 50.04185 | 8.56774 | 360 ft | 0 kts | 12° |
| 2026-05-01 13:29 | 50.04274 | 8.56804 | 363 ft | 14 kts | 12° |
| 2026-05-01 13:29 | 50.04497 | 8.56871 | 359 ft | 14 kts | 14° |
| 2026-05-01 13:30 | 50.04648 | 8.56833 | 361 ft | 2 kts | 294° |
| 2026-05-01 13:31 | 50.04655 | 8.56810 | 361 ft | 0 kts | 295° |